This is the latest recevied weather packets stored in our database for station/object KC0QBU-13. If no packets are shown the sender has not sent any weather packets the latest 10 day(s).
| Time | Temp. | Humidity | Pressure | Rain* | Wind** | Luminosity | Snow |
|---|---|---|---|---|---|---|---|
| 1777595704 | 15.56° C | 53% | 1017.1 hPa | 0 mm | - | - | - |
| 1777592704 | 17.22° C | 47% | 1016.4 hPa | 0 mm | - | - | - |
| 1777592403 | 17.22° C | 47% | 1016.3 hPa | 0 mm | - | - | - |
| 1777591503 | 17.78° C | 46% | 1016.2 hPa | 0 mm | - | - | - |
| 1777589703 | 17.78° C | 45% | 1016 hPa | 0 mm | - | - | - |
| 1777589404 | 18.33° C | 46% | 1016 hPa | 0 mm | - | - | - |
| 1777589104 | 18.33° C | 48% | 1015.9 hPa | 0 mm | - | - | - |
| 1777588803 | 18.33° C | 46% | 1016 hPa | 0 mm | - | - | - |
| 1777588203 | 18.33° C | 46% | 1016 hPa | 0 mm | - | - | - |
| 1777585503 | 18.33° C | 49% | 1016.2 hPa | 0 mm | - | - | - |
| 1777584304 | 18.89° C | 48% | 1016.4 hPa | 0 mm | - | - | - |
| 1777582203 | 18.89° C | 49% | 1016.8 hPa | 0 mm | - | - | - |
| 1777578003 | 18.89° C | 48% | 1017.4 hPa | 0 mm | - | - | - |
| 1777577704 | 18.89° C | 50% | 1017.4 hPa | 0 mm | - | - | - |
| 1777577403 | 18.89° C | 50% | 1017.4 hPa | 0 mm | - | - | - |
| 1777576204 | 17.78° C | 50% | 1017.4 hPa | 0 mm | - | - | - |
| 1777571704 | 18.33° C | 45% | 1018.3 hPa | 0 mm | - | - | - |
| 1777567503 | 17.78° C | 48% | 1019.3 hPa | 0 mm | - | - | - |
| 1777566904 | 17.78° C | 51% | 1019.4 hPa | 0 mm | - | - | - |
| 1777565404 | 16.67° C | 50% | 1019.7 hPa | 0 mm | - | - | - |
| 1777563603 | 15° C | 54% | 1019.9 hPa | 0 mm | - | - | - |
| 1777561504 | 14.44° C | 56% | 1019.8 hPa | 0 mm | - | - | - |
| 1777559103 | 13.89° C | 58% | 1019.7 hPa | 0 mm | - | - | - |
| 1777558504 | 13.89° C | 60% | 1019.7 hPa | 0 mm | - | - | - |
| 1777556104 | 12.22° C | 67% | 1019.6 hPa | 0 mm | - | - | - |
* Rain latest hour (hover to see other rain measurements)
** Current wind speed in m/s (hover to see current wind gust speed)